createdAt,value
2022-08-21T00:01:15.097Z,5.90
2022-08-21T00:04:22.373Z,5.85
2022-08-21T00:07:24.089Z,5.40
2022-08-21T00:10:26.669Z,5.68
2022-08-21T00:13:28.013Z,6.50
2022-08-21T00:16:29.306Z,6.05
2022-08-21T00:19:30.902Z,5.18
2022-08-21T00:22:32.269Z,6.13
2022-08-21T00:25:33.910Z,5.70
2022-08-21T00:28:35.236Z,5.28
2022-08-21T00:31:36.766Z,6.60
2022-08-21T00:34:38.127Z,6.55
2022-08-21T00:37:40.714Z,4.30
2022-08-21T00:40:44.237Z,5.28
2022-08-21T00:43:45.864Z,6.78
2022-08-21T00:46:47.558Z,8.43
2022-08-21T00:49:49.067Z,6.85
2022-08-21T00:52:51.973Z,6.75
2022-08-21T00:55:53.782Z,6.80
2022-08-21T00:58:59.129Z,5.60
2022-08-21T01:02:00.481Z,5.65
2022-08-21T01:05:01.755Z,7.03
2022-08-21T01:08:03.594Z,6.53
2022-08-21T01:11:05.576Z,4.93
2022-08-21T01:14:06.949Z,7.22
2022-08-21T01:17:09.034Z,5.07
2022-08-21T01:20:11.794Z,6.60
2022-08-21T01:23:13.122Z,7.38
2022-08-21T01:26:17.046Z,6.30
2022-08-21T01:29:21.465Z,7.90
2022-08-21T01:32:23.207Z,6.95
2022-08-21T01:35:24.585Z,6.68
2022-08-21T01:38:26.290Z,8.63
2022-08-21T01:41:28.882Z,6.95
2022-08-21T01:44:30.301Z,7.22
2022-08-21T01:47:31.758Z,6.55
2022-08-21T01:50:33.373Z,6.38
2022-08-21T01:53:36.635Z,6.03
2022-08-21T01:56:39.983Z,7.45
2022-08-21T01:59:41.678Z,6.65
2022-08-21T02:02:43.667Z,8.95
2022-08-21T02:05:44.941Z,5.82
2022-08-21T02:08:47.267Z,7.95
2022-08-21T02:11:48.630Z,7.85
2022-08-21T02:14:50.088Z,7.38
2022-08-21T02:17:53.520Z,11.63
2022-08-21T02:20:56.470Z,7.35
2022-08-21T02:23:58.255Z,9.98
2022-08-21T02:26:59.552Z,12.35
2022-08-21T02:30:00.864Z,10.07
2022-08-21T02:33:02.222Z,8.90
2022-08-21T02:36:04.400Z,7.25
2022-08-21T02:39:05.723Z,7.05
2022-08-21T02:42:07.113Z,6.65
2022-08-21T02:45:08.661Z,6.18
2022-08-21T02:48:12.569Z,8.10
2022-08-21T02:51:18.135Z,6.88
2022-08-21T02:54:19.458Z,6.78
2022-08-21T02:57:20.758Z,7.80
2022-08-21T03:00:23.438Z,8.55
2022-08-21T03:03:25.513Z,6.68
2022-08-21T03:06:26.989Z,10.20
2022-08-21T03:09:28.346Z,7.13
2022-08-21T03:12:29.857Z,8.60
2022-08-21T03:15:32.546Z,7.45
2022-08-21T03:18:33.969Z,7.38
2022-08-21T03:21:37.491Z,8.80
2022-08-21T03:24:38.786Z,6.68
2022-08-21T03:27:44.637Z,7.97
2022-08-21T03:30:47.545Z,7.10
2022-08-21T03:33:48.846Z,8.48
2022-08-21T03:36:50.259Z,6.78
2022-08-21T03:39:51.699Z,7.40
2022-08-21T03:42:53.079Z,7.15
2022-08-21T03:45:54.689Z,7.93
2022-08-21T03:48:56.991Z,7.40
2022-08-21T03:51:59.581Z,7.65
2022-08-21T03:55:01.164Z,8.45
2022-08-21T03:58:16.720Z,7.75
2022-08-21T04:01:18.847Z,6.85
2022-08-21T04:04:20.251Z,7.72
2022-08-21T04:07:21.538Z,8.45
2022-08-21T04:10:24.518Z,7.40
2022-08-21T04:13:28.989Z,8.05
2022-08-21T04:16:30.277Z,7.55
2022-08-21T04:19:31.569Z,7.85
2022-08-21T04:22:33.603Z,6.75
2022-08-21T04:25:35.315Z,8.05
2022-08-21T04:28:36.592Z,6.65
2022-08-21T04:31:38.639Z,7.20
2022-08-21T04:34:39.926Z,12.80
2022-08-21T04:37:42.338Z,6.18
2022-08-21T04:40:43.806Z,8.30
2022-08-21T04:43:45.270Z,7.70
2022-08-21T04:46:46.565Z,7.45
2022-08-21T04:49:47.886Z,7.22
2022-08-21T04:52:49.283Z,6.25
2022-08-21T04:55:52.967Z,7.22
2022-08-21T04:58:57.027Z,7.25
2022-08-21T05:01:58.689Z,8.57
2022-08-21T05:05:00.389Z,8.05
2022-08-21T05:08:02.331Z,7.22
2022-08-21T05:11:03.881Z,7.55
2022-08-21T05:14:05.375Z,9.00
2022-08-21T05:17:06.674Z,10.30
2022-08-21T05:20:08.609Z,8.20
2022-08-21T05:23:10.394Z,7.65
2022-08-21T05:26:18.057Z,7.90
2022-08-21T05:29:20.064Z,7.57
2022-08-21T05:32:21.906Z,7.80
2022-08-21T05:35:23.375Z,8.00
2022-08-21T05:38:25.225Z,6.65
2022-08-21T05:41:26.566Z,8.27
2022-08-21T05:44:27.937Z,7.45
2022-08-21T05:47:29.287Z,8.25
2022-08-21T05:50:33.722Z,7.22
2022-08-21T05:53:35.238Z,7.57
2022-08-21T05:56:36.597Z,8.48
2022-08-21T05:59:38.599Z,7.18
2022-08-21T06:02:40.752Z,9.27
2022-08-21T06:05:43.658Z,9.85
2022-08-21T06:08:45.479Z,8.40
2022-08-21T06:11:46.781Z,8.90
2022-08-21T06:14:48.123Z,7.10
2022-08-21T06:17:49.432Z,6.13
2022-08-21T06:20:50.716Z,8.85
2022-08-21T06:23:52.019Z,7.05
2022-08-21T06:26:53.759Z,6.88
2022-08-21T06:29:57.303Z,7.50
2022-08-21T06:32:58.830Z,6.55
2022-08-21T06:36:00.974Z,8.07
2022-08-21T06:39:02.448Z,7.05
2022-08-21T06:42:17.938Z,6.80
2022-08-21T06:45:19.268Z,5.90
2022-08-21T06:48:20.558Z,6.18
2022-08-21T06:51:22.294Z,5.00
2022-08-21T06:54:23.619Z,6.75
2022-08-21T06:57:26.187Z,5.03
2022-08-21T07:00:27.576Z,5.45
2022-08-21T07:03:36.716Z,8.15
2022-08-21T07:06:38.073Z,5.95
2022-08-21T07:09:40.447Z,5.15
2022-08-21T07:12:42.143Z,4.68
2022-08-21T07:15:43.582Z,4.65
2022-08-21T07:18:44.954Z,6.15
2022-08-21T07:21:46.317Z,5.63
2022-08-21T07:24:47.629Z,5.22
2022-08-21T07:27:49.016Z,4.78
2022-08-21T07:30:55.159Z,5.05
2022-08-21T07:33:56.498Z,4.95
2022-08-21T07:36:59.534Z,6.38
2022-08-21T07:40:07.972Z,5.93
2022-08-21T07:43:09.314Z,5.40
2022-08-21T07:46:11.131Z,4.85
2022-08-21T07:49:12.444Z,5.93
2022-08-21T07:52:13.807Z,5.55
2022-08-21T07:55:17.551Z,6.85
2022-08-21T07:58:18.911Z,4.57
2022-08-21T08:01:20.609Z,4.55
2022-08-21T08:04:26.204Z,5.07
2022-08-21T08:07:27.918Z,4.47
2022-08-21T08:10:29.210Z,5.93
2022-08-21T08:13:30.516Z,4.70
2022-08-21T08:16:31.877Z,5.03
2022-08-21T08:19:33.192Z,5.93
2022-08-21T08:22:34.909Z,4.65
2022-08-21T08:25:36.909Z,5.00
2022-08-21T08:28:38.422Z,5.97
2022-08-21T08:31:39.756Z,7.22
2022-08-21T08:34:41.068Z,4.28
2022-08-21T08:37:43.655Z,5.25
2022-08-21T08:40:52.889Z,4.30
2022-08-21T08:43:55.477Z,4.60
2022-08-21T08:46:57.656Z,3.42
2022-08-21T08:50:06.059Z,4.70
2022-08-21T08:53:11.811Z,4.68
2022-08-21T08:56:13.874Z,3.55
2022-08-21T08:59:23.897Z,5.90
2022-08-21T09:02:25.549Z,4.40
2022-08-21T09:05:31.533Z,4.47
2022-08-21T09:08:38.910Z,7.05
2022-08-21T09:11:47.839Z,4.28
2022-08-21T09:14:53.023Z,5.53
2022-08-21T09:18:08.068Z,5.70
2022-08-21T09:21:28.072Z,5.30
2022-08-21T09:24:29.329Z,4.45
2022-08-21T09:27:32.320Z,3.97
2022-08-21T09:30:33.749Z,5.20
2022-08-21T09:33:35.637Z,4.75
2022-08-21T09:36:36.907Z,4.57
2022-08-21T09:39:41.890Z,4.35
2022-08-21T09:42:54.480Z,5.55
2022-08-21T09:46:10.871Z,5.13
2022-08-21T09:49:13.536Z,4.18
2022-08-21T09:52:22.739Z,4.05
2022-08-21T09:55:49.254Z,4.75
2022-08-21T09:58:51.619Z,3.75
2022-08-21T10:01:53.752Z,4.00
2022-08-21T10:04:59.218Z,3.58
2022-08-21T10:08:01.486Z,5.40
2022-08-21T10:11:10.029Z,5.43
2022-08-21T10:14:28.865Z,4.20
2022-08-21T10:17:32.937Z,5.32
2022-08-21T10:20:45.105Z,3.90
2022-08-21T10:23:59.782Z,3.92
2022-08-21T10:27:06.590Z,4.15
2022-08-21T10:30:12.240Z,3.97
2022-08-21T10:33:19.456Z,4.53
2022-08-21T10:36:23.638Z,5.10
2022-08-21T10:39:36.548Z,4.10
2022-08-21T10:43:01.043Z,3.90
2022-08-21T10:46:09.862Z,4.00
2022-08-21T10:49:20.155Z,3.58
2022-08-21T10:52:27.585Z,3.28
2022-08-21T10:55:37.431Z,4.05
2022-08-21T10:58:41.554Z,4.13
2022-08-21T11:02:04.687Z,4.07
2022-08-21T11:05:15.104Z,3.50
2022-08-21T11:08:19.673Z,3.40
2022-08-21T11:11:47.017Z,3.30
2022-08-21T11:15:03.686Z,3.95
2022-08-21T11:18:19.369Z,3.72
2022-08-21T11:21:27.018Z,3.22
2022-08-21T11:24:47.195Z,4.28
2022-08-21T11:27:54.962Z,3.47
2022-08-21T11:31:13.374Z,3.83
2022-08-21T11:34:26.817Z,3.65
2022-08-21T11:37:33.902Z,3.38
2022-08-21T11:40:37.960Z,5.18
2022-08-21T11:43:40.951Z,4.53
2022-08-21T11:46:50.487Z,3.53
2022-08-21T11:53:05.787Z,3.63
2022-08-21T11:56:12.702Z,3.08
2022-08-21T11:59:17.663Z,4.57
2022-08-21T12:02:24.693Z,3.63
2022-08-21T12:05:38.570Z,3.10
2022-08-21T12:08:44.188Z,3.30
2022-08-21T12:11:50.771Z,3.25
2022-08-21T12:15:05.390Z,4.05
2022-08-21T12:18:19.643Z,4.43
2022-08-21T12:21:25.964Z,3.20
2022-08-21T12:24:27.796Z,3.47
2022-08-21T12:27:52.537Z,3.28
2022-08-21T12:30:57.904Z,3.30
2022-08-21T12:34:00.764Z,5.07
2022-08-21T12:37:17.901Z,3.83
2022-08-21T12:40:23.608Z,3.28
2022-08-21T12:43:39.804Z,3.10
2022-08-21T12:46:51.173Z,3.33
2022-08-21T12:49:55.606Z,4.03
2022-08-21T12:53:00.511Z,4.28
2022-08-21T12:56:09.932Z,3.60
2022-08-21T12:59:12.747Z,3.85
2022-08-21T13:02:21.506Z,3.53
2022-08-21T13:05:32.892Z,3.40
2022-08-21T13:08:40.107Z,3.45
2022-08-21T13:11:44.463Z,3.55
2022-08-21T13:14:49.421Z,3.85
2022-08-21T13:17:51.533Z,2.92
2022-08-21T13:20:53.594Z,3.63
2022-08-21T13:23:54.882Z,4.47
2022-08-21T13:26:56.863Z,4.70
2022-08-21T13:30:09.606Z,3.65
2022-08-21T13:33:13.249Z,3.03
2022-08-21T13:36:17.613Z,3.92
2022-08-21T13:39:19.685Z,3.45
2022-08-21T13:42:21.091Z,3.28
2022-08-21T13:45:24.878Z,2.63
2022-08-21T13:48:28.891Z,2.80
2022-08-21T13:51:31.911Z,4.05
2022-08-21T13:54:37.928Z,2.70
2022-08-21T13:57:39.278Z,3.75
2022-08-21T14:00:53.691Z,2.97
2022-08-21T14:03:58.883Z,2.92
2022-08-21T14:07:00.777Z,3.22
2022-08-21T14:10:02.759Z,3.10
2022-08-21T14:13:05.844Z,3.45
2022-08-21T14:16:16.471Z,3.10
2022-08-21T14:19:22.459Z,2.90
2022-08-21T14:22:38.182Z,4.60
2022-08-21T14:25:44.213Z,2.38
2022-08-21T14:28:46.221Z,4.07
2022-08-21T14:31:58.726Z,4.47
2022-08-21T14:35:00.080Z,3.25
2022-08-21T14:38:01.583Z,4.30
2022-08-21T14:41:11.215Z,3.42
2022-08-21T14:44:12.520Z,3.58
2022-08-21T14:47:13.852Z,3.15
2022-08-21T14:50:15.228Z,3.15
2022-08-21T14:53:17.165Z,3.38
2022-08-21T14:56:18.693Z,3.00
2022-08-21T14:59:20.800Z,3.97
2022-08-21T15:02:22.105Z,3.40
2022-08-21T15:05:26.015Z,4.07
2022-08-21T15:08:34.690Z,2.58
2022-08-21T15:11:41.303Z,3.05
2022-08-21T15:14:44.452Z,2.90
2022-08-21T15:17:48.299Z,3.08
2022-08-21T15:20:50.564Z,2.70
2022-08-21T15:23:52.233Z,2.90
2022-08-21T15:26:54.623Z,3.67
2022-08-21T15:29:56.002Z,3.63
2022-08-21T15:32:57.985Z,3.25
2022-08-21T15:35:59.478Z,2.63
2022-08-21T15:39:00.807Z,2.78
2022-08-21T15:42:02.789Z,3.10
2022-08-21T15:45:12.323Z,3.70
2022-08-21T15:48:13.628Z,2.90
2022-08-21T15:51:16.882Z,4.65
2022-08-21T15:54:18.179Z,2.65
2022-08-21T15:57:21.339Z,3.38
2022-08-21T16:00:24.071Z,2.65
2022-08-21T16:03:26.905Z,3.97
2022-08-21T16:09:39.239Z,2.78
2022-08-21T16:12:44.499Z,2.33
2022-08-21T16:15:45.824Z,4.18
2022-08-21T16:18:47.922Z,4.10
2022-08-21T16:21:49.329Z,3.35
2022-08-21T16:24:50.651Z,2.83
2022-08-21T16:27:58.571Z,2.80
2022-08-21T16:31:01.511Z,2.55
2022-08-21T16:34:02.941Z,3.35
2022-08-21T16:37:04.380Z,2.72
2022-08-21T16:40:06.540Z,3.72
2022-08-21T16:43:08.238Z,2.53
2022-08-21T16:46:10.558Z,2.90
2022-08-21T16:49:11.869Z,2.65
2022-08-21T16:52:13.301Z,3.83
2022-08-21T16:55:14.633Z,2.60
2022-08-21T16:58:34.833Z,3.92
2022-08-21T17:01:36.981Z,3.65
2022-08-21T17:04:38.342Z,3.72
2022-08-21T17:07:39.750Z,3.40
2022-08-21T17:10:43.920Z,3.67
2022-08-21T17:13:45.259Z,3.05
2022-08-21T17:16:50.169Z,5.55
2022-08-21T17:19:51.484Z,4.22
2022-08-21T17:22:52.864Z,3.97
2022-08-21T17:25:54.797Z,3.47
2022-08-21T17:28:56.376Z,3.55
2022-08-21T17:31:57.802Z,3.05
2022-08-21T17:34:59.102Z,3.65
2022-08-21T17:38:00.486Z,5.00
2022-08-21T17:41:01.918Z,3.83
2022-08-21T17:44:06.185Z,4.20
2022-08-21T17:47:08.395Z,4.88
2022-08-21T17:50:10.667Z,4.75
2022-08-21T17:53:13.174Z,6.05
2022-08-21T17:56:14.928Z,4.57
2022-08-21T17:59:16.288Z,4.20
2022-08-21T18:02:20.166Z,6.05
2022-08-21T18:05:21.988Z,3.08
2022-08-21T18:08:23.537Z,4.03
2022-08-21T18:11:26.526Z,3.08
2022-08-21T18:14:29.286Z,3.83
2022-08-21T18:17:33.578Z,4.25
2022-08-21T18:20:34.932Z,4.65
2022-08-21T18:23:44.489Z,4.38
2022-08-21T18:26:46.235Z,4.25
2022-08-21T18:29:48.698Z,4.28
2022-08-21T18:32:51.034Z,3.80
2022-08-21T18:35:52.457Z,4.03
2022-08-21T18:38:54.956Z,3.10
2022-08-21T18:41:56.384Z,4.22
2022-08-21T18:45:00.405Z,3.58
2022-08-21T18:48:03.566Z,5.15
2022-08-21T18:51:04.990Z,4.75
2022-08-21T18:54:09.049Z,4.20
2022-08-21T18:57:14.803Z,3.30
2022-08-21T19:00:21.637Z,5.32
2022-08-21T19:03:24.128Z,3.50
2022-08-21T19:06:25.456Z,3.90
2022-08-21T19:09:26.826Z,4.22
2022-08-21T19:12:29.645Z,3.45
2022-08-21T19:15:33.873Z,4.78
2022-08-21T19:18:38.092Z,5.25
2022-08-21T19:21:40.409Z,3.40
2022-08-21T19:24:49.895Z,6.53
2022-08-21T19:28:10.933Z,5.30
2022-08-21T19:31:16.377Z,3.83
2022-08-21T19:34:19.280Z,3.80
2022-08-21T19:37:21.010Z,4.82
2022-08-21T19:40:24.120Z,5.82
2022-08-21T19:43:26.022Z,5.20
2022-08-21T19:46:32.066Z,4.85
2022-08-21T19:49:34.171Z,3.90
2022-08-21T19:52:35.689Z,3.53
2022-08-21T19:55:37.508Z,4.75
2022-08-21T19:58:42.828Z,4.07
2022-08-21T20:01:44.239Z,4.00
2022-08-21T20:08:11.670Z,4.10
2022-08-21T20:11:31.269Z,3.53
2022-08-21T20:14:33.199Z,5.60
2022-08-21T20:17:34.674Z,5.03
2022-08-21T20:20:36.011Z,3.75
2022-08-21T20:23:37.352Z,3.75
2022-08-21T20:26:50.365Z,4.47
2022-08-21T20:29:51.954Z,3.40
2022-08-21T20:32:53.371Z,4.60
2022-08-21T20:35:55.002Z,4.18
2022-08-21T20:38:56.417Z,5.05
2022-08-21T20:41:57.771Z,3.60
2022-08-21T20:45:01.157Z,4.05
2022-08-21T20:48:11.783Z,5.10
2022-08-21T20:51:15.787Z,3.00
2022-08-21T20:57:22.173Z,2.92
2022-08-21T21:00:26.118Z,3.65
2022-08-21T21:03:42.900Z,3.45
2022-08-21T21:06:44.827Z,5.15
2022-08-21T21:09:52.093Z,4.72
2022-08-21T21:12:57.785Z,4.78
2022-08-21T21:16:02.028Z,3.50
2022-08-21T21:19:13.323Z,5.63
2022-08-21T21:22:27.089Z,3.10
2022-08-21T21:25:42.412Z,3.42
2022-08-21T21:28:53.673Z,5.47
2022-08-21T21:31:55.085Z,3.33
2022-08-21T21:34:56.663Z,6.15
2022-08-21T21:38:00.574Z,4.55
2022-08-21T21:41:08.276Z,4.32
2022-08-21T21:44:24.934Z,3.20
2022-08-21T21:47:36.961Z,4.35
2022-08-21T21:50:50.405Z,5.35
2022-08-21T21:54:02.009Z,4.53
2022-08-21T21:57:22.281Z,3.67
2022-08-21T22:00:27.130Z,6.13
2022-08-21T22:03:37.962Z,5.13
2022-08-21T22:06:41.137Z,3.55
2022-08-21T22:10:19.821Z,4.07
2022-08-21T22:13:39.053Z,4.28
2022-08-21T22:19:43.586Z,4.07
2022-08-21T22:22:47.177Z,5.00
2022-08-21T22:25:50.470Z,5.25
2022-08-21T22:28:53.261Z,4.00
2022-08-21T22:32:05.504Z,4.60
2022-08-21T22:35:09.579Z,5.07
2022-08-21T22:38:26.307Z,4.75
2022-08-21T22:41:29.632Z,3.38
2022-08-21T22:44:30.939Z,5.22
2022-08-21T22:47:41.405Z,5.28
2022-08-21T22:50:43.246Z,4.15
2022-08-21T22:53:51.165Z,5.00
2022-08-21T22:57:13.779Z,6.15
2022-08-21T23:00:33.776Z,4.40
2022-08-21T23:03:44.038Z,3.47
2022-08-21T23:06:55.213Z,4.13
2022-08-21T23:09:57.114Z,6.43
2022-08-21T23:12:59.103Z,4.18
2022-08-21T23:16:19.584Z,3.55
2022-08-21T23:19:31.052Z,4.30
2022-08-21T23:22:48.929Z,4.65
2022-08-21T23:25:53.386Z,5.55
2022-08-21T23:29:04.881Z,5.43
2022-08-21T23:32:21.141Z,4.82
2022-08-21T23:35:44.291Z,4.93
2022-08-21T23:38:48.162Z,3.20
2022-08-21T23:42:02.544Z,3.65
2022-08-21T23:45:33.064Z,4.60
2022-08-21T23:48:35.027Z,5.03
2022-08-21T23:51:52.213Z,3.72
2022-08-21T23:54:53.489Z,4.28
2022-08-21T23:58:14.935Z,4.00
